sensor_id;sensor_type;location;lat;lon;timestamp;P1;durP1;ratioP1;P2;durP2;ratioP2
57303;SDS011;43150;50.986;18.208;2024-03-25T00:00:47;10.40;;;5.20;;
57303;SDS011;43150;50.986;18.208;2024-03-25T00:03:13;7.90;;;4.20;;
57303;SDS011;43150;50.986;18.208;2024-03-25T00:05:38;8.80;;;5.30;;
57303;SDS011;43150;50.986;18.208;2024-03-25T00:08:04;7.20;;;4.10;;
57303;SDS011;43150;50.986;18.208;2024-03-25T00:10:30;9.10;;;5.70;;
57303;SDS011;43150;50.986;18.208;2024-03-25T00:12:55;8.60;;;5.90;;
57303;SDS011;43150;50.986;18.208;2024-03-25T00:15:22;12.10;;;5.90;;
57303;SDS011;43150;50.986;18.208;2024-03-25T00:17:49;9.20;;;4.80;;
57303;SDS011;43150;50.986;18.208;2024-03-25T00:20:14;10.30;;;5.70;;
57303;SDS011;43150;50.986;18.208;2024-03-25T00:22:40;7.30;;;4.00;;
57303;SDS011;43150;50.986;18.208;2024-03-25T00:25:06;11.40;;;5.00;;
57303;SDS011;43150;50.986;18.208;2024-03-25T00:27:32;7.70;;;4.30;;
57303;SDS011;43150;50.986;18.208;2024-03-25T00:29:57;7.30;;;5.20;;
57303;SDS011;43150;50.986;18.208;2024-03-25T00:32:23;6.20;;;4.10;;
57303;SDS011;43150;50.986;18.208;2024-03-25T00:34:49;5.30;;;3.00;;
57303;SDS011;43150;50.986;18.208;2024-03-25T00:37:14;6.50;;;3.40;;
57303;SDS011;43150;50.986;18.208;2024-03-25T00:39:40;4.70;;;2.90;;
57303;SDS011;43150;50.986;18.208;2024-03-25T00:42:05;7.20;;;3.50;;
57303;SDS011;43150;50.986;18.208;2024-03-25T00:44:31;6.40;;;3.70;;
57303;SDS011;43150;50.986;18.208;2024-03-25T00:46:56;10.00;;;3.60;;
57303;SDS011;43150;50.986;18.208;2024-03-25T00:49:22;10.20;;;5.20;;
57303;SDS011;43150;50.986;18.208;2024-03-25T00:51:48;11.60;;;6.80;;
57303;SDS011;43150;50.986;18.208;2024-03-25T00:54:13;14.60;;;6.30;;
57303;SDS011;43150;50.986;18.208;2024-03-25T00:56:39;12.70;;;6.90;;
57303;SDS011;43150;50.986;18.208;2024-03-25T00:59:04;11.70;;;5.90;;
57303;SDS011;43150;50.986;18.208;2024-03-25T01:01:32;7.40;;;4.20;;
57303;SDS011;43150;50.986;18.208;2024-03-25T01:03:58;5.80;;;3.20;;
57303;SDS011;43150;50.986;18.208;2024-03-25T01:06:24;8.20;;;4.60;;
57303;SDS011;43150;50.986;18.208;2024-03-25T01:08:49;11.30;;;7.10;;
57303;SDS011;43150;50.986;18.208;2024-03-25T01:11:15;8.00;;;4.90;;
57303;SDS011;43150;50.986;18.208;2024-03-25T01:13:40;7.10;;;4.10;;
57303;SDS011;43150;50.986;18.208;2024-03-25T01:16:09;7.20;;;4.00;;
57303;SDS011;43150;50.986;18.208;2024-03-25T01:18:37;9.00;;;4.50;;
57303;SDS011;43150;50.986;18.208;2024-03-25T01:21:03;6.10;;;3.10;;
57303;SDS011;43150;50.986;18.208;2024-03-25T01:23:29;7.70;;;3.90;;
57303;SDS011;43150;50.986;18.208;2024-03-25T01:25:54;7.60;;;3.70;;
57303;SDS011;43150;50.986;18.208;2024-03-25T01:28:19;7.10;;;3.50;;
57303;SDS011;43150;50.986;18.208;2024-03-25T01:30:45;6.40;;;3.50;;
57303;SDS011;43150;50.986;18.208;2024-03-25T01:33:11;7.50;;;3.20;;
57303;SDS011;43150;50.986;18.208;2024-03-25T01:35:37;4.50;;;3.00;;
57303;SDS011;43150;50.986;18.208;2024-03-25T01:38:03;8.70;;;4.30;;
57303;SDS011;43150;50.986;18.208;2024-03-25T01:40:28;10.90;;;4.30;;
57303;SDS011;43150;50.986;18.208;2024-03-25T01:42:55;6.10;;;3.60;;
57303;SDS011;43150;50.986;18.208;2024-03-25T01:45:20;7.40;;;4.50;;
57303;SDS011;43150;50.986;18.208;2024-03-25T01:47:46;9.40;;;4.20;;
57303;SDS011;43150;50.986;18.208;2024-03-25T01:50:12;7.70;;;4.60;;
57303;SDS011;43150;50.986;18.208;2024-03-25T01:52:38;8.10;;;3.50;;
57303;SDS011;43150;50.986;18.208;2024-03-25T01:55:07;5.50;;;2.70;;
57303;SDS011;43150;50.986;18.208;2024-03-25T01:57:34;7.80;;;3.90;;
57303;SDS011;43150;50.986;18.208;2024-03-25T01:59:59;6.70;;;3.60;;
57303;SDS011;43150;50.986;18.208;2024-03-25T02:02:24;6.80;;;3.80;;
57303;SDS011;43150;50.986;18.208;2024-03-25T02:04:50;7.40;;;3.30;;
57303;SDS011;43150;50.986;18.208;2024-03-25T02:07:16;4.90;;;2.80;;
57303;SDS011;43150;50.986;18.208;2024-03-25T02:09:42;7.80;;;3.90;;
57303;SDS011;43150;50.986;18.208;2024-03-25T02:12:08;7.40;;;3.40;;
57303;SDS011;43150;50.986;18.208;2024-03-25T02:14:34;5.70;;;3.00;;
57303;SDS011;43150;50.986;18.208;2024-03-25T02:17:00;5.00;;;3.20;;
57303;SDS011;43150;50.986;18.208;2024-03-25T02:19:25;5.30;;;2.50;;
57303;SDS011;43150;50.986;18.208;2024-03-25T02:21:51;5.70;;;3.10;;
57303;SDS011;43150;50.986;18.208;2024-03-25T02:24:17;6.30;;;3.20;;
57303;SDS011;43150;50.986;18.208;2024-03-25T02:26:43;7.00;;;3.70;;
57303;SDS011;43150;50.986;18.208;2024-03-25T02:29:09;6.20;;;3.80;;
57303;SDS011;43150;50.986;18.208;2024-03-25T02:31:35;7.40;;;4.10;;
57303;SDS011;43150;50.986;18.208;2024-03-25T02:34:00;6.40;;;3.20;;
57303;SDS011;43150;50.986;18.208;2024-03-25T02:36:26;7.90;;;4.00;;
57303;SDS011;43150;50.986;18.208;2024-03-25T02:38:51;6.50;;;2.90;;
57303;SDS011;43150;50.986;18.208;2024-03-25T02:41:17;7.10;;;3.10;;
57303;SDS011;43150;50.986;18.208;2024-03-25T02:43:42;4.40;;;2.80;;
57303;SDS011;43150;50.986;18.208;2024-03-25T02:46:08;4.40;;;2.70;;
57303;SDS011;43150;50.986;18.208;2024-03-25T02:48:34;5.30;;;2.50;;
57303;SDS011;43150;50.986;18.208;2024-03-25T02:50:59;5.70;;;3.60;;
57303;SDS011;43150;50.986;18.208;2024-03-25T02:53:24;4.10;;;2.30;;
57303;SDS011;43150;50.986;18.208;2024-03-25T02:55:50;5.60;;;3.10;;
57303;SDS011;43150;50.986;18.208;2024-03-25T02:58:15;4.50;;;2.70;;
57303;SDS011;43150;50.986;18.208;2024-03-25T03:00:41;5.40;;;3.50;;
57303;SDS011;43150;50.986;18.208;2024-03-25T03:03:06;5.10;;;2.80;;
57303;SDS011;43150;50.986;18.208;2024-03-25T03:05:33;3.10;;;2.20;;
57303;SDS011;43150;50.986;18.208;2024-03-25T03:08:00;3.50;;;2.30;;
57303;SDS011;43150;50.986;18.208;2024-03-25T03:10:26;6.90;;;2.10;;
57303;SDS011;43150;50.986;18.208;2024-03-25T03:12:51;4.30;;;2.10;;
57303;SDS011;43150;50.986;18.208;2024-03-25T03:15:17;5.00;;;3.10;;
57303;SDS011;43150;50.986;18.208;2024-03-25T03:17:42;5.00;;;3.20;;
57303;SDS011;43150;50.986;18.208;2024-03-25T03:20:08;6.40;;;2.50;;
57303;SDS011;43150;50.986;18.208;2024-03-25T03:22:35;4.40;;;2.40;;
57303;SDS011;43150;50.986;18.208;2024-03-25T03:25:00;5.20;;;2.70;;
57303;SDS011;43150;50.986;18.208;2024-03-25T03:27:26;4.00;;;2.50;;
57303;SDS011;43150;50.986;18.208;2024-03-25T03:29:51;5.00;;;2.60;;
57303;SDS011;43150;50.986;18.208;2024-03-25T03:32:17;5.40;;;2.30;;
57303;SDS011;43150;50.986;18.208;2024-03-25T03:34:42;3.60;;;2.00;;
57303;SDS011;43150;50.986;18.208;2024-03-25T03:37:08;7.20;;;2.20;;
57303;SDS011;43150;50.986;18.208;2024-03-25T03:39:33;2.70;;;1.40;;
57303;SDS011;43150;50.986;18.208;2024-03-25T03:41:59;2.90;;;1.90;;
57303;SDS011;43150;50.986;18.208;2024-03-25T03:44:25;3.60;;;2.40;;
57303;SDS011;43150;50.986;18.208;2024-03-25T03:46:50;4.20;;;2.40;;
57303;SDS011;43150;50.986;18.208;2024-03-25T03:49:16;4.70;;;2.00;;
57303;SDS011;43150;50.986;18.208;2024-03-25T03:51:42;2.70;;;2.00;;
57303;SDS011;43150;50.986;18.208;2024-03-25T03:54:07;2.60;;;1.70;;
57303;SDS011;43150;50.986;18.208;2024-03-25T03:56:33;4.20;;;2.70;;
57303;SDS011;43150;50.986;18.208;2024-03-25T03:58:58;3.90;;;2.60;;
57303;SDS011;43150;50.986;18.208;2024-03-25T04:01:25;5.00;;;3.50;;
57303;SDS011;43150;50.986;18.208;2024-03-25T04:03:50;5.10;;;2.40;;
57303;SDS011;43150;50.986;18.208;2024-03-25T04:06:16;3.80;;;2.60;;
57303;SDS011;43150;50.986;18.208;2024-03-25T04:08:42;5.30;;;2.70;;
57303;SDS011;43150;50.986;18.208;2024-03-25T04:11:08;6.40;;;2.80;;
57303;SDS011;43150;50.986;18.208;2024-03-25T04:13:35;6.80;;;3.00;;
57303;SDS011;43150;50.986;18.208;2024-03-25T04:16:01;4.80;;;2.60;;
57303;SDS011;43150;50.986;18.208;2024-03-25T04:18:28;2.90;;;2.20;;
57303;SDS011;43150;50.986;18.208;2024-03-25T04:20:54;2.90;;;1.80;;
57303;SDS011;43150;50.986;18.208;2024-03-25T04:23:19;3.30;;;1.80;;
57303;SDS011;43150;50.986;18.208;2024-03-25T04:25:45;5.00;;;3.10;;
57303;SDS011;43150;50.986;18.208;2024-03-25T04:28:10;4.40;;;2.10;;
57303;SDS011;43150;50.986;18.208;2024-03-25T04:30:35;4.40;;;2.20;;
57303;SDS011;43150;50.986;18.208;2024-03-25T04:33:01;3.10;;;2.10;;
57303;SDS011;43150;50.986;18.208;2024-03-25T04:35:27;3.50;;;2.00;;
57303;SDS011;43150;50.986;18.208;2024-03-25T04:37:53;3.60;;;2.20;;
57303;SDS011;43150;50.986;18.208;2024-03-25T04:40:20;2.90;;;1.80;;
57303;SDS011;43150;50.986;18.208;2024-03-25T04:42:46;4.10;;;1.90;;
57303;SDS011;43150;50.986;18.208;2024-03-25T04:45:12;2.90;;;1.80;;
57303;SDS011;43150;50.986;18.208;2024-03-25T04:47:39;4.30;;;2.40;;
57303;SDS011;43150;50.986;18.208;2024-03-25T04:50:05;5.70;;;3.00;;
57303;SDS011;43150;50.986;18.208;2024-03-25T04:52:30;4.90;;;3.10;;
57303;SDS011;43150;50.986;18.208;2024-03-25T04:54:56;5.80;;;2.60;;
57303;SDS011;43150;50.986;18.208;2024-03-25T04:57:21;3.80;;;2.50;;
57303;SDS011;43150;50.986;18.208;2024-03-25T04:59:48;4.30;;;2.30;;
57303;SDS011;43150;50.986;18.208;2024-03-25T05:02:13;5.10;;;2.50;;
57303;SDS011;43150;50.986;18.208;2024-03-25T05:04:39;6.60;;;3.20;;
57303;SDS011;43150;50.986;18.208;2024-03-25T05:07:04;3.70;;;2.60;;
57303;SDS011;43150;50.986;18.208;2024-03-25T05:09:30;5.90;;;3.10;;
57303;SDS011;43150;50.986;18.208;2024-03-25T05:11:55;5.90;;;2.70;;
57303;SDS011;43150;50.986;18.208;2024-03-25T05:14:21;4.20;;;2.50;;
57303;SDS011;43150;50.986;18.208;2024-03-25T05:16:46;5.20;;;3.00;;
57303;SDS011;43150;50.986;18.208;2024-03-25T05:19:12;5.90;;;2.60;;
57303;SDS011;43150;50.986;18.208;2024-03-25T05:21:37;5.70;;;2.40;;
57303;SDS011;43150;50.986;18.208;2024-03-25T05:24:03;5.40;;;2.70;;
57303;SDS011;43150;50.986;18.208;2024-03-25T05:26:28;8.70;;;3.40;;
57303;SDS011;43150;50.986;18.208;2024-03-25T05:28:54;6.10;;;3.20;;
57303;SDS011;43150;50.986;18.208;2024-03-25T05:31:20;6.00;;;2.80;;
57303;SDS011;43150;50.986;18.208;2024-03-25T05:33:46;3.60;;;2.50;;
57303;SDS011;43150;50.986;18.208;2024-03-25T05:36:11;8.20;;;3.70;;
57303;SDS011;43150;50.986;18.208;2024-03-25T05:38:37;4.80;;;3.40;;
57303;SDS011;43150;50.986;18.208;2024-03-25T05:41:03;4.00;;;2.60;;
57303;SDS011;43150;50.986;18.208;2024-03-25T05:43:29;4.10;;;2.20;;
57303;SDS011;43150;50.986;18.208;2024-03-25T05:45:55;3.70;;;2.50;;
57303;SDS011;43150;50.986;18.208;2024-03-25T05:48:21;5.50;;;3.50;;
57303;SDS011;43150;50.986;18.208;2024-03-25T05:50:46;4.30;;;2.90;;
57303;SDS011;43150;50.986;18.208;2024-03-25T05:53:21;2.90;;;1.70;;
57303;SDS011;43150;50.986;18.208;2024-03-25T05:55:52;2.50;;;1.60;;
57303;SDS011;43150;50.986;18.208;2024-03-25T05:58:18;3.60;;;2.20;;
57303;SDS011;43150;50.986;18.208;2024-03-25T06:00:46;4.00;;;2.10;;
57303;SDS011;43150;50.986;18.208;2024-03-25T06:03:12;4.40;;;1.80;;
57303;SDS011;43150;50.986;18.208;2024-03-25T06:05:37;2.90;;;1.80;;
57303;SDS011;43150;50.986;18.208;2024-03-25T06:08:03;3.10;;;1.20;;
57303;SDS011;43150;50.986;18.208;2024-03-25T06:10:28;1.90;;;1.30;;
57303;SDS011;43150;50.986;18.208;2024-03-25T06:12:54;3.80;;;2.40;;
57303;SDS011;43150;50.986;18.208;2024-03-25T06:15:19;4.10;;;2.50;;
57303;SDS011;43150;50.986;18.208;2024-03-25T06:17:45;1.80;;;1.60;;
57303;SDS011;43150;50.986;18.208;2024-03-25T06:20:10;4.20;;;2.50;;
57303;SDS011;43150;50.986;18.208;2024-03-25T06:22:36;1.70;;;0.90;;
57303;SDS011;43150;50.986;18.208;2024-03-25T06:25:02;3.20;;;1.80;;
57303;SDS011;43150;50.986;18.208;2024-03-25T06:27:28;8.00;;;2.40;;
57303;SDS011;43150;50.986;18.208;2024-03-25T06:29:55;6.70;;;3.10;;
57303;SDS011;43150;50.986;18.208;2024-03-25T06:32:40;11.00;;;3.60;;
57303;SDS011;43150;50.986;18.208;2024-03-25T06:35:25;11.20;;;4.10;;
57303;SDS011;43150;50.986;18.208;2024-03-25T06:37:50;7.20;;;3.00;;
57303;SDS011;43150;50.986;18.208;2024-03-25T06:40:15;7.40;;;3.30;;
57303;SDS011;43150;50.986;18.208;2024-03-25T06:42:41;5.70;;;3.20;;
57303;SDS011;43150;50.986;18.208;2024-03-25T06:45:07;6.00;;;3.20;;
57303;SDS011;43150;50.986;18.208;2024-03-25T06:47:32;4.50;;;2.90;;
57303;SDS011;43150;50.986;18.208;2024-03-25T06:49:58;6.60;;;3.70;;
57303;SDS011;43150;50.986;18.208;2024-03-25T06:52:23;7.00;;;3.20;;
57303;SDS011;43150;50.986;18.208;2024-03-25T06:54:49;5.90;;;3.40;;
57303;SDS011;43150;50.986;18.208;2024-03-25T06:57:15;5.80;;;3.70;;
57303;SDS011;43150;50.986;18.208;2024-03-25T06:59:40;5.60;;;3.80;;
57303;SDS011;43150;50.986;18.208;2024-03-25T07:02:06;5.70;;;4.10;;
57303;SDS011;43150;50.986;18.208;2024-03-25T07:04:32;6.90;;;4.30;;
57303;SDS011;43150;50.986;18.208;2024-03-25T07:06:58;10.20;;;8.90;;
57303;SDS011;43150;50.986;18.208;2024-03-25T07:09:23;9.20;;;8.20;;
57303;SDS011;43150;50.986;18.208;2024-03-25T07:11:49;9.20;;;7.50;;
57303;SDS011;43150;50.986;18.208;2024-03-25T07:14:15;9.20;;;7.80;;
57303;SDS011;43150;50.986;18.208;2024-03-25T07:16:40;8.40;;;7.10;;
57303;SDS011;43150;50.986;18.208;2024-03-25T07:19:06;6.50;;;5.30;;
57303;SDS011;43150;50.986;18.208;2024-03-25T07:21:32;6.30;;;5.70;;
57303;SDS011;43150;50.986;18.208;2024-03-25T07:23:57;5.20;;;3.00;;
57303;SDS011;43150;50.986;18.208;2024-03-25T07:26:23;3.40;;;2.50;;
57303;SDS011;43150;50.986;18.208;2024-03-25T07:28:48;6.70;;;5.70;;
57303;SDS011;43150;50.986;18.208;2024-03-25T07:31:14;5.10;;;3.90;;
57303;SDS011;43150;50.986;18.208;2024-03-25T07:33:40;4.30;;;2.80;;
57303;SDS011;43150;50.986;18.208;2024-03-25T07:36:06;4.90;;;2.90;;
57303;SDS011;43150;50.986;18.208;2024-03-25T07:38:32;2.90;;;2.00;;
57303;SDS011;43150;50.986;18.208;2024-03-25T07:41:02;2.30;;;1.90;;
57303;SDS011;43150;50.986;18.208;2024-03-25T07:43:28;2.50;;;1.50;;
57303;SDS011;43150;50.986;18.208;2024-03-25T07:45:54;2.30;;;1.70;;
57303;SDS011;43150;50.986;18.208;2024-03-25T07:48:19;1.20;;;1.10;;
57303;SDS011;43150;50.986;18.208;2024-03-25T07:50:45;0.90;;;0.80;;
57303;SDS011;43150;50.986;18.208;2024-03-25T07:53:10;0.80;;;0.80;;
57303;SDS011;43150;50.986;18.208;2024-03-25T07:55:36;0.90;;;0.90;;
57303;SDS011;43150;50.986;18.208;2024-03-25T07:58:01;2.90;;;1.90;;
57303;SDS011;43150;50.986;18.208;2024-03-25T08:00:27;0.70;;;0.60;;
57303;SDS011;43150;50.986;18.208;2024-03-25T08:02:52;1.60;;;1.30;;
57303;SDS011;43150;50.986;18.208;2024-03-25T08:05:18;1.30;;;1.00;;
57303;SDS011;43150;50.986;18.208;2024-03-25T08:07:45;1.60;;;0.90;;
57303;SDS011;43150;50.986;18.208;2024-03-25T08:10:10;1.00;;;0.70;;
57303;SDS011;43150;50.986;18.208;2024-03-25T08:12:36;1.80;;;1.00;;
57303;SDS011;43150;50.986;18.208;2024-03-25T08:15:01;1.40;;;0.80;;
57303;SDS011;43150;50.986;18.208;2024-03-25T08:17:28;1.10;;;0.90;;
57303;SDS011;43150;50.986;18.208;2024-03-25T08:19:58;2.00;;;1.00;;
57303;SDS011;43150;50.986;18.208;2024-03-25T08:22:23;4.00;;;2.00;;
57303;SDS011;43150;50.986;18.208;2024-03-25T08:24:49;15.20;;;6.40;;
57303;SDS011;43150;50.986;18.208;2024-03-25T08:27:14;7.00;;;3.10;;
57303;SDS011;43150;50.986;18.208;2024-03-25T08:29:40;6.50;;;3.10;;
57303;SDS011;43150;50.986;18.208;2024-03-25T08:32:06;5.30;;;4.20;;
57303;SDS011;43150;50.986;18.208;2024-03-25T08:34:31;2.90;;;2.60;;
57303;SDS011;43150;50.986;18.208;2024-03-25T08:36:57;10.60;;;2.20;;
57303;SDS011;43150;50.986;18.208;2024-03-25T08:39:23;53.90;;;9.00;;
57303;SDS011;43150;50.986;18.208;2024-03-25T08:41:48;3.50;;;2.10;;
57303;SDS011;43150;50.986;18.208;2024-03-25T08:44:14;2.50;;;0.80;;
57303;SDS011;43150;50.986;18.208;2024-03-25T08:46:40;3.80;;;1.20;;
57303;SDS011;43150;50.986;18.208;2024-03-25T08:49:05;0.80;;;0.80;;
57303;SDS011;43150;50.986;18.208;2024-03-25T08:51:31;6.90;;;1.90;;
57303;SDS011;43150;50.986;18.208;2024-03-25T08:53:56;0.80;;;0.80;;
57303;SDS011;43150;50.986;18.208;2024-03-25T08:56:22;1.30;;;1.00;;
57303;SDS011;43150;50.986;18.208;2024-03-25T08:58:48;0.80;;;0.80;;
57303;SDS011;43150;50.986;18.208;2024-03-25T09:01:13;1.40;;;1.00;;
57303;SDS011;43150;50.986;18.208;2024-03-25T09:03:41;1.10;;;0.70;;
57303;SDS011;43150;50.986;18.208;2024-03-25T09:06:06;1.20;;;0.90;;
57303;SDS011;43150;50.986;18.208;2024-03-25T09:08:33;1.90;;;1.30;;
57303;SDS011;43150;50.986;18.208;2024-03-25T09:11:19;1.70;;;0.90;;
57303;SDS011;43150;50.986;18.208;2024-03-25T09:13:45;0.90;;;0.80;;
57303;SDS011;43150;50.986;18.208;2024-03-25T09:16:10;1.40;;;1.10;;
57303;SDS011;43150;50.986;18.208;2024-03-25T09:18:41;2.60;;;2.30;;
57303;SDS011;43150;50.986;18.208;2024-03-25T09:21:22;0.70;;;0.70;;
57303;SDS011;43150;50.986;18.208;2024-03-25T09:23:50;1.10;;;0.90;;
57303;SDS011;43150;50.986;18.208;2024-03-25T09:26:15;1.50;;;1.30;;
57303;SDS011;43150;50.986;18.208;2024-03-25T09:28:41;4.00;;;2.50;;
57303;SDS011;43150;50.986;18.208;2024-03-25T09:31:09;2.80;;;1.60;;
57303;SDS011;43150;50.986;18.208;2024-03-25T09:33:35;1.40;;;1.20;;
57303;SDS011;43150;50.986;18.208;2024-03-25T09:36:07;1.60;;;1.20;;
57303;SDS011;43150;50.986;18.208;2024-03-25T09:38:32;1.30;;;1.20;;
57303;SDS011;43150;50.986;18.208;2024-03-25T09:40:58;3.30;;;2.00;;
57303;SDS011;43150;50.986;18.208;2024-03-25T09:43:25;2.40;;;1.40;;
57303;SDS011;43150;50.986;18.208;2024-03-25T09:45:52;3.20;;;1.80;;
57303;SDS011;43150;50.986;18.208;2024-03-25T09:48:19;3.00;;;2.00;;
57303;SDS011;43150;50.986;18.208;2024-03-25T09:50:46;2.70;;;2.40;;
57303;SDS011;43150;50.986;18.208;2024-03-25T09:53:12;2.00;;;1.80;;
57303;SDS011;43150;50.986;18.208;2024-03-25T09:55:38;2.90;;;2.10;;
57303;SDS011;43150;50.986;18.208;2024-03-25T09:58:05;2.20;;;1.40;;
57303;SDS011;43150;50.986;18.208;2024-03-25T10:00:30;1.60;;;1.40;;
57303;SDS011;43150;50.986;18.208;2024-03-25T10:02:57;2.90;;;2.00;;
57303;SDS011;43150;50.986;18.208;2024-03-25T10:05:23;2.70;;;1.90;;
57303;SDS011;43150;50.986;18.208;2024-03-25T10:07:49;2.10;;;1.90;;
57303;SDS011;43150;50.986;18.208;2024-03-25T10:10:18;8.20;;;6.10;;
57303;SDS011;43150;50.986;18.208;2024-03-25T10:12:44;2.10;;;1.70;;
57303;SDS011;43150;50.986;18.208;2024-03-25T10:15:14;6.00;;;5.40;;
57303;SDS011;43150;50.986;18.208;2024-03-25T10:17:40;5.50;;;2.50;;
57303;SDS011;43150;50.986;18.208;2024-03-25T10:20:06;4.30;;;4.00;;
57303;SDS011;43150;50.986;18.208;2024-03-25T10:22:44;4.30;;;2.60;;
57303;SDS011;43150;50.986;18.208;2024-03-25T10:25:20;10.40;;;7.60;;
57303;SDS011;43150;50.986;18.208;2024-03-25T10:27:53;8.50;;;6.40;;
57303;SDS011;43150;50.986;18.208;2024-03-25T10:30:19;5.90;;;3.30;;
57303;SDS011;43150;50.986;18.208;2024-03-25T10:32:44;3.10;;;2.60;;
57303;SDS011;43150;50.986;18.208;2024-03-25T10:35:10;3.50;;;1.90;;
57303;SDS011;43150;50.986;18.208;2024-03-25T10:37:35;1.40;;;1.30;;
57303;SDS011;43150;50.986;18.208;2024-03-25T10:40:01;1.40;;;1.20;;
57303;SDS011;43150;50.986;18.208;2024-03-25T10:42:29;1.40;;;1.30;;
57303;SDS011;43150;50.986;18.208;2024-03-25T10:44:56;1.60;;;1.50;;
57303;SDS011;43150;50.986;18.208;2024-03-25T10:47:23;1.40;;;1.30;;
57303;SDS011;43150;50.986;18.208;2024-03-25T10:52:17;1.50;;;1.20;;
57303;SDS011;43150;50.986;18.208;2024-03-25T10:54:44;1.40;;;1.30;;
57303;SDS011;43150;50.986;18.208;2024-03-25T10:57:10;1.30;;;1.20;;
57303;SDS011;43150;50.986;18.208;2024-03-25T10:59:35;1.70;;;1.10;;
57303;SDS011;43150;50.986;18.208;2024-03-25T11:02:06;1.30;;;1.20;;
57303;SDS011;43150;50.986;18.208;2024-03-25T11:04:32;1.30;;;1.20;;
57303;SDS011;43150;50.986;18.208;2024-03-25T11:07:08;1.10;;;1.10;;
57303;SDS011;43150;50.986;18.208;2024-03-25T11:09:34;1.30;;;1.20;;
57303;SDS011;43150;50.986;18.208;2024-03-25T11:12:01;1.20;;;0.70;;
57303;SDS011;43150;50.986;18.208;2024-03-25T11:14:27;0.80;;;0.60;;
57303;SDS011;43150;50.986;18.208;2024-03-25T11:16:57;0.70;;;0.70;;
57303;SDS011;43150;50.986;18.208;2024-03-25T11:19:25;0.70;;;0.70;;
57303;SDS011;43150;50.986;18.208;2024-03-25T11:21:51;0.70;;;0.70;;
57303;SDS011;43150;50.986;18.208;2024-03-25T11:24:26;0.90;;;0.90;;
57303;SDS011;43150;50.986;18.208;2024-03-25T11:26:52;1.10;;;0.90;;
57303;SDS011;43150;50.986;18.208;2024-03-25T11:29:18;0.70;;;0.70;;
57303;SDS011;43150;50.986;18.208;2024-03-25T11:31:43;4.10;;;3.00;;
57303;SDS011;43150;50.986;18.208;2024-03-25T11:34:10;1.70;;;1.60;;
57303;SDS011;43150;50.986;18.208;2024-03-25T11:36:37;1.40;;;1.30;;
57303;SDS011;43150;50.986;18.208;2024-03-25T11:39:03;1.40;;;1.20;;
57303;SDS011;43150;50.986;18.208;2024-03-25T11:41:31;0.80;;;0.80;;
57303;SDS011;43150;50.986;18.208;2024-03-25T11:43:57;1.50;;;1.00;;
57303;SDS011;43150;50.986;18.208;2024-03-25T11:46:24;1.10;;;1.00;;
57303;SDS011;43150;50.986;18.208;2024-03-25T11:48:50;1.00;;;0.90;;
57303;SDS011;43150;50.986;18.208;2024-03-25T11:51:19;1.00;;;0.70;;
57303;SDS011;43150;50.986;18.208;2024-03-25T11:53:44;0.80;;;0.80;;
57303;SDS011;43150;50.986;18.208;2024-03-25T11:56:13;1.00;;;0.90;;
57303;SDS011;43150;50.986;18.208;2024-03-25T11:58:39;1.00;;;1.00;;
57303;SDS011;43150;50.986;18.208;2024-03-25T12:01:04;1.30;;;1.20;;
57303;SDS011;43150;50.986;18.208;2024-03-25T12:03:30;1.10;;;1.10;;
57303;SDS011;43150;50.986;18.208;2024-03-25T12:05:56;1.20;;;1.10;;
57303;SDS011;43150;50.986;18.208;2024-03-25T12:08:24;1.50;;;1.40;;
57303;SDS011;43150;50.986;18.208;2024-03-25T12:10:53;1.50;;;1.30;;
57303;SDS011;43150;50.986;18.208;2024-03-25T12:13:37;1.70;;;1.60;;
57303;SDS011;43150;50.986;18.208;2024-03-25T12:16:06;2.30;;;1.90;;
57303;SDS011;43150;50.986;18.208;2024-03-25T12:18:33;2.30;;;1.90;;
57303;SDS011;43150;50.986;18.208;2024-03-25T12:20:59;2.10;;;1.90;;
57303;SDS011;43150;50.986;18.208;2024-03-25T12:23:28;1.90;;;1.80;;
57303;SDS011;43150;50.986;18.208;2024-03-25T12:25:54;2.00;;;1.90;;
57303;SDS011;43150;50.986;18.208;2024-03-25T12:28:19;2.40;;;2.20;;
57303;SDS011;43150;50.986;18.208;2024-03-25T12:30:51;1.80;;;1.40;;
57303;SDS011;43150;50.986;18.208;2024-03-25T12:33:20;1.10;;;1.00;;
57303;SDS011;43150;50.986;18.208;2024-03-25T12:35:45;1.00;;;0.70;;
57303;SDS011;43150;50.986;18.208;2024-03-25T12:38:21;1.40;;;0.80;;
57303;SDS011;43150;50.986;18.208;2024-03-25T12:40:46;1.60;;;1.20;;
57303;SDS011;43150;50.986;18.208;2024-03-25T12:43:15;0.50;;;0.50;;
57303;SDS011;43150;50.986;18.208;2024-03-25T12:45:41;1.20;;;0.80;;
57303;SDS011;43150;50.986;18.208;2024-03-25T12:48:08;1.90;;;0.80;;
57303;SDS011;43150;50.986;18.208;2024-03-25T12:50:33;1.40;;;1.30;;
57303;SDS011;43150;50.986;18.208;2024-03-25T12:52:59;0.70;;;0.60;;
57303;SDS011;43150;50.986;18.208;2024-03-25T12:55:29;1.20;;;1.20;;
57303;SDS011;43150;50.986;18.208;2024-03-25T12:57:54;1.60;;;1.50;;
57303;SDS011;43150;50.986;18.208;2024-03-25T13:00:20;1.00;;;0.50;;
57303;SDS011;43150;50.986;18.208;2024-03-25T13:02:45;0.60;;;0.40;;
57303;SDS011;43150;50.986;18.208;2024-03-25T13:05:11;0.60;;;0.40;;
57303;SDS011;43150;50.986;18.208;2024-03-25T13:07:37;3.50;;;2.10;;
57303;SDS011;43150;50.986;18.208;2024-03-25T13:10:03;2.30;;;2.10;;
57303;SDS011;43150;50.986;18.208;2024-03-25T13:12:30;8.20;;;7.40;;
57303;SDS011;43150;50.986;18.208;2024-03-25T13:14:56;6.60;;;6.00;;
57303;SDS011;43150;50.986;18.208;2024-03-25T13:17:23;2.40;;;1.90;;
57303;SDS011;43150;50.986;18.208;2024-03-25T13:19:49;2.00;;;1.50;;
57303;SDS011;43150;50.986;18.208;2024-03-25T13:22:14;2.40;;;2.00;;
57303;SDS011;43150;50.986;18.208;2024-03-25T13:24:40;1.50;;;1.40;;
57303;SDS011;43150;50.986;18.208;2024-03-25T13:27:05;2.20;;;1.90;;
57303;SDS011;43150;50.986;18.208;2024-03-25T13:29:31;4.30;;;3.90;;
57303;SDS011;43150;50.986;18.208;2024-03-25T13:31:57;1.90;;;1.60;;
57303;SDS011;43150;50.986;18.208;2024-03-25T13:34:23;2.50;;;2.30;;
57303;SDS011;43150;50.986;18.208;2024-03-25T13:36:49;2.40;;;2.10;;
57303;SDS011;43150;50.986;18.208;2024-03-25T13:39:14;2.10;;;0.90;;
57303;SDS011;43150;50.986;18.208;2024-03-25T13:41:40;0.70;;;0.70;;
57303;SDS011;43150;50.986;18.208;2024-03-25T13:44:05;1.00;;;0.90;;
57303;SDS011;43150;50.986;18.208;2024-03-25T13:46:31;0.70;;;0.70;;
57303;SDS011;43150;50.986;18.208;2024-03-25T13:48:56;0.70;;;0.70;;
57303;SDS011;43150;50.986;18.208;2024-03-25T13:51:22;1.40;;;1.00;;
57303;SDS011;43150;50.986;18.208;2024-03-25T13:53:47;1.00;;;0.80;;
57303;SDS011;43150;50.986;18.208;2024-03-25T13:56:13;1.00;;;0.90;;
57303;SDS011;43150;50.986;18.208;2024-03-25T13:58:39;0.30;;;0.30;;
57303;SDS011;43150;50.986;18.208;2024-03-25T14:01:04;0.40;;;0.40;;
57303;SDS011;43150;50.986;18.208;2024-03-25T14:03:31;0.20;;;0.20;;
57303;SDS011;43150;50.986;18.208;2024-03-25T14:05:56;0.30;;;0.30;;
57303;SDS011;43150;50.986;18.208;2024-03-25T14:08:22;0.60;;;0.40;;
57303;SDS011;43150;50.986;18.208;2024-03-25T14:10:56;0.50;;;0.50;;
57303;SDS011;43150;50.986;18.208;2024-03-25T14:13:22;1.40;;;0.70;;
57303;SDS011;43150;50.986;18.208;2024-03-25T14:15:49;2.80;;;1.80;;
57303;SDS011;43150;50.986;18.208;2024-03-25T14:18:14;0.90;;;0.50;;
57303;SDS011;43150;50.986;18.208;2024-03-25T14:20:40;1.70;;;1.50;;
57303;SDS011;43150;50.986;18.208;2024-03-25T14:23:05;2.10;;;1.50;;
57303;SDS011;43150;50.986;18.208;2024-03-25T14:25:32;2.30;;;2.00;;
57303;SDS011;43150;50.986;18.208;2024-03-25T14:27:57;2.10;;;1.90;;
57303;SDS011;43150;50.986;18.208;2024-03-25T14:30:23;1.90;;;1.70;;